Terminal Aerodrome Forecast
Issued by NWS Wilmington, OH

Current Version | Previous Version | Graphics & Text | Print | Product List | Glossary On
Versions: 1 2 3 4 5 6 7 8 9 10 11 12 13 14 15 16 17 18 19 20 21 22 23 24 25 26 27 28 29
000
FTUS41 KILN 291339 AAA
TAFCMH
TAF AMD
KCMH 291339Z 2914/3012 32008KT 5SM BR OVC005
     FM291600 32007KT P6SM OVC015
     FM291700 29006KT P6SM BKN025
     FM292100 32006KT P6SM BKN035
     FM300300 03006KT P6SM SCT045 BKN250=

USA.gov is the U.S. government's official web portal to all federal, state and local government web resources and services.